Sac City, IA (50583)

6:10 AM CDT on September 25, 2016 (GMT -0500)
Odebolt Methodist Church | | Change Station

Elev 1381 ft 42.31 °N, 95.25 °W | Updated 45 seconds ago

Overcast
Overcast
55.0 °F
Feels Like 55.0 °F
N
0.0
Wind Variable Wind from North
Gusts 1.0 mph

Today
High -- | Low -- °F
--% Chance of Precip.
Yesterday
High -- | Low -- °F
Precip. -- in
Pressure 30.01 in
Visibility 10.0 miles
Clouds Overcast 10000 ft
Dew Point 54 °F
Humidity 98%
Rainfall 0.76 in
Snow Depth Not available.
7:11 AM 7:10 PM
Waning Crescent, 28% visible
METAR KSLB 251055Z AUTO 30010G15KT 10SM OVC100 14/11 A3001 RMK AO2
Pressure 30.01 in
Visibility 10.0 miles
Clouds Overcast 10000 ft
Dew Point 54 °F
Humidity 98%
Rainfall 0.76 in
Snow Depth Not available.
7:11 AM 7:10 PM
Waning Crescent, 28% visible
METAR KSLB 251055Z AUTO 30010G15KT 10SM OVC100 14/11 A3001 RMK AO2

10-Day Weather Forecast

Almanac

Astronomy

Sep. 25, 2016 Rise Set
Actual Time
Civil Twilight
Nautical Twilight
Astronomical Twilight
Moon
Length of Visible Light
Length of Day
Tomorrow will be .
, % of the Moon is Illuminated

Today's Extremes

State Highs State Lows

Community

WunderPhotos

Upload Photos

1,941,575 photos uploaded!

WunderBlog® & News

Nearby

Air Quality

  Air Quality AQ Index Pollutant
Not available.

Snow Depth

Station Depth Elevation

Earthquake Activity

City Distance Mag. Time & Date
Minimum magnitude displayed is 2.5.

Coastal Water Temperatures

Place Temperature

Stations

Nearby Weather Stations

Station Location Temp. Windchill Dew Point Humidity Wind Precip. Elev Updated Type
                   

Watches & Warnings

There are currently no watches in effect.